Latest METARs, TAFs and NOTAMs for SEGU


---------------------------------------------------------------------------
	(OBSERVATIONS)
SEGU 210500Z 23008KT 9999 FEW023 BKN100 23/20 Q1013 NOSIG RMK
    A2991=
SEGU 210300Z 24008KT 9999 FEW023 BKN100 24/20 Q1013 NOSIG RMK
    A2991=
---------------------------------------------------------------------------
	(TERMINAL AREA FORECAST)
SEGU 210410Z 2106/2206 23007KT 9999 SCT023 SCT100
    BECMG 2108/2109 BKN020 BKN100
    FM211400 12005KT 9999 SCT023 SCT100
    BECMG 2122/2123 20010KT TX30/2119Z TN23/2110Z=
---------------------------------------------------------------------------
	(NOTAMS)


SEGU A0055/09 APN NORTE CLSD POR INCIDENTE DE ACFT 27 JAN 05:30
    UNTIL 27 JAN 18:00 ESTIMATED

SEGU A0648/18 RWY CLSD DUE TO MAINT. AUTH OPS HEL. 23 JUN 14:00
    2018 UNTIL 23 JUN 20:00 2018. CREATED: 16 APR 16:19 2018

SEGU A0787/18 MOV AREA WIP SUBJ TFC. CTN. 10 MAY 13:02 2018 UNTIL
    18 AUG 04:59 2018. CREATED: 10 MAY 13:22 2018

SEGU A0788/18 WIP IN GREEN AREAS MOV AREA, SUBJ TFC. CTN. 10
    MAY 13:06 2018 UNTIL 18 AUG 04:59 2018. CREATED: 10 MAY 13:24
    2018

SEGU A1463/06 COMBUSTIBLE JET A-1 RESTRINGIDO 20 POR CIENTO 26
    DEC 20:45 2006 UNTIL 04 JAN 23:00 ESTIMATED

---------------------------------------------------------------------------